Airfield :
LOGIN :

Register | Disclaimer

   EN    FR    IT 

 










Legend :    VFR   Marginal VFR   IFR   Intensive IFR   Very Intensive IFR
Visi :
Ceiling :
>= 8 km
>= 3000ft
5 to 8 km
1000 to 3000 ft
1500m to 5 km
500 to 1000 ft
800 to 1500m
200 to 500 ft
< 800m
< 200 ft
Symbols :   Thunderstorms  Fog  Heavy snow  Heavy precipitations  Wind > 20 kt
SIGMETs :     Misc.  Thunderstorms  Icing  Turbulence  Mountain Waves  Volcanic Ashes







- Airport Elevation : 485 ft
- IATA code : QSA


LELL - Sabadell

CURRENT METAR :
  • 171930Z AUTO VRB02KT 9999 SCT021/// BKN032/// OVC050/// 09/06 Q1017

EXPIRED METARs :
  • 171900Z AUTO 22002KT 9999 BKN044 BKN050 10/06 Q1017
  • 171830Z AUTO 27002KT 9999 FEW021/// SCT039/// BKN050/// 10/07 Q1016
  • 171800Z AUTO 29001KT 9999 SCT042 BKN060 10/08 Q1016
  • 171730Z AUTO VRB01KT CAVOK 11/08 Q1016
  • 171700Z AUTO VRB02KT 9999 FEW060 12/07 Q1016

TAF TAF LELL
Valid from the 17 at 15:00 until the 18 at 15:00 UTC


171400Z 1715/1815 10006KT 9999 FEW040 TX11/1813Z TN01/1807Z
PROB40
TEMPO 1717/1802 3000 RA OVC020
BECMG 1718/1720 28006KT
No reported NOTAMs for that airfield.
1 SIGMET reported for the Barcelona FIR (LECB) :
 
Severe turbulence
LECB SIGMET 1 VALID 171700/172100 LEVA
LECB BARCELONA FIR/UIR SEV TURB FCST W OF LINE N4221 E00319 - N3828 W00123 FL180/310 MOV E NC=



MET'MAP, your aeronautical weather chart ! - Copyright ORBIFLY December 2007 - Disclaimer

ORBIFLY MET'MAP TEAM :

Programming & Development : Alexandra Zaïnal
Concept & Development : Baudouin d'Aumeries
Co-Development & Prog : Marc-Olivier Méhu
Technical & hardware support : Manuel Goepfert

Contact : metmap@orbifly.com




SOURCES & CREDITS :

   NOAA